Time;durP1;ratioP1;P1;durP2;ratioP2;P2;SDS_P1;SDS_P2;PMS_P1;PMS_P2;Temp;Humidity;BMP_temperature;BMP_pressure;BME280_temperature;BME280_humidity;BME280_pressure;Samples;Min_cycle;Max_cycle;Signal;HPM_P1;HPM_P2
2023/01/08 00:01:27;;;;;;;;;;;;;;;;;;5023183;28;19924;-82
2023/01/08 00:04:16;;;;;;;;;;;;;;;;;;5022350;28;19917;-83
2023/01/08 00:07:03;;;;;;;;;;;;;;;;;;5001562;28;19945;-85
2023/01/08 00:09:51;;;;;;;;;;;;;;;;;;5011606;28;19920;-80
2023/01/08 00:12:37;;;;;;;;;;;;;;;;;;5001574;28;20826;-80
2023/01/08 00:15:23;;;;;;;;;;;;;;;;;;5001168;28;19918;-80
2023/01/08 00:18:10;;;;;;;;;;;;;;;;;;4997581;28;19917;-80
2023/01/08 00:20:56;;;;;;;;;;;;;;;;;;5008058;28;19914;-81
2023/01/08 00:23:43;;;;;;;;;;;;;;;;;;5007748;28;20292;-80
2023/01/08 00:26:29;;;;;;;;;;;;;;;;;;5001641;28;19925;-80
2023/01/08 00:29:16;;;;;;;;;;;;;;;;;;5008010;28;19921;-81
2023/01/08 00:32:02;;;;;;;;;;;;;;;;;;4997915;28;19944;-83
2023/01/08 00:34:49;;;;;;;;;;;;;;;;;;5002096;28;19924;-78
2023/01/08 00:37:35;;;;;;;;;;;;;;;;;;4993102;28;19921;-79
2023/01/08 00:40:22;;;;;;;;;;;;;;;;;;5001489;28;19920;-83
2023/01/08 00:43:08;;;;;;;;;;;;;;;;;;5011933;28;19921;-86
2023/01/08 00:45:55;;;;;;;;;;;;;;;;;;5000929;28;19924;-86
2023/01/08 00:48:41;;;;;;;;;;;;;;;;;;4999997;28;19921;-83
2023/01/08 00:51:28;;;;;;;;;;;;;;;;;;5003804;28;20438;-83
2023/01/08 00:54:14;;;;;;;;;;;;;;;;;;5002206;28;19924;-79
2023/01/08 00:57:01;;;;;;;;;;;;;;;;;;5000514;28;19914;-80
2023/01/08 00:59:47;;;;;;;;;;;;;;;;;;5002883;28;19929;-79
2023/01/08 01:02:34;;;;;;;;;;;;;;;;;;5003224;28;20300;-80
2023/01/08 01:05:20;;;;;;;;;;;;;;;;;;4996992;28;19920;-78
2023/01/08 01:08:07;;;;;;;;;;;;;;;;;;5000824;28;19929;-78
2023/01/08 01:10:53;;;;;;;;;;;;;;;;;;5006553;28;19920;-78
2023/01/08 01:13:39;;;;;;;;;;;;;;;;;;5001485;28;19913;-81
2023/01/08 01:16:26;;;;;;;;;;;;;;;;;;5004569;28;21330;-79
2023/01/08 01:19:12;;;;;;;;;;;;;;;;;;5004444;28;19927;-79
2023/01/08 01:21:59;;;;;;;;;;;;;;;;;;5002969;28;20288;-80
2023/01/08 01:24:45;;;;;;;;;;;;;;;;;;5002913;28;19918;-79
2023/01/08 01:27:32;;;;;;;;;;;;;;;;;;5003109;28;19921;-78
2023/01/08 01:30:18;;;;;;;;;;;;;;;;;;5005024;28;19913;-80
2023/01/08 01:33:05;;;;;;;;;;;;;;;;;;5012466;28;20413;-78
2023/01/08 01:35:51;;;;;;;;;;;;;;;;;;5004022;28;20380;-79
2023/01/08 01:38:38;;;;;;;;;;;;;;;;;;5000553;28;19913;-79
2023/01/08 01:41:24;;;;;;;;;;;;;;;;;;5001346;28;19935;-79
2023/01/08 01:44:11;;;;;;;;;;;;;;;;;;4994705;28;19981;-79
2023/01/08 01:46:57;;;;;;;;;;;;;;;;;;5002081;28;19956;-81
2023/01/08 01:49:44;;;;;;;;;;;;;;;;;;5004643;28;20387;-79
2023/01/08 01:52:30;;;;;;;;;;;;;;;;;;5003335;28;19926;-79
2023/01/08 01:55:17;;;;;;;;;;;;;;;;;;5004286;28;19944;-79
2023/01/08 01:58:03;;;;;;;;;;;;;;;;;;5006305;28;19955;-79
2023/01/08 02:00:50;;;;;;;;;;;;;;;;;;4999951;28;19913;-80
2023/01/08 02:03:36;;;;;;;;;;;;;;;;;;5004761;28;19913;-80
2023/01/08 02:06:23;;;;;;;;;;;;;;;;;;5003932;28;19913;-80
2023/01/08 02:09:09;;;;;;;;;;;;;;;;;;5002606;28;20339;-79
2023/01/08 02:15:01;;;;;;;;;;;;;;;;;;5001301;28;20462;-79
2023/01/08 02:17:47;;;;;;;;;;;;;;;;;;5002635;28;19921;-81
2023/01/08 02:20:34;;;;;;;;;;;;;;;;;;5002560;28;19921;-79
2023/01/08 02:23:20;;;;;;;;;;;;;;;;;;4997102;28;20549;-79
2023/01/08 02:26:07;;;;;;;;;;;;;;;;;;5010957;28;19924;-83
2023/01/08 02:28:53;;;;;;;;;;;;;;;;;;5024111;28;19929;-78
2023/01/08 02:31:40;;;;;;;;;;;;;;;;;;5015031;28;19913;-81
2023/01/08 02:34:27;;;;;;;;;;;;;;;;;;5015201;28;19913;-77
2023/01/08 02:37:13;;;;;;;;;;;;;;;;;;5012830;28;19909;-79
2023/01/08 02:40:00;;;;;;;;;;;;;;;;;;5005078;28;19924;-82
2023/01/08 02:42:46;;;;;;;;;;;;;;;;;;5008820;28;19915;-79
2023/01/08 02:45:33;;;;;;;;;;;;;;;;;;5005169;28;20411;-79
2023/01/08 02:48:19;;;;;;;;;;;;;;;;;;4999178;28;20380;-80
2023/01/08 02:51:06;;;;;;;;;;;;;;;;;;4990020;28;19925;-79
2023/01/08 02:53:52;;;;;;;;;;;;;;;;;;5006819;28;19933;-80
2023/01/08 02:56:39;;;;;;;;;;;;;;;;;;5007622;28;20420;-81
2023/01/08 02:59:25;;;;;;;;;;;;;;;;;;5006678;28;19913;-79
2023/01/08 03:02:12;;;;;;;;;;;;;;;;;;5004060;28;19928;-80
2023/01/08 03:04:58;;;;;;;;;;;;;;;;;;4992150;28;19922;-80
2023/01/08 03:07:45;;;;;;;;;;;;;;;;;;5003887;28;19928;-80
2023/01/08 03:10:31;;;;;;;;;;;;;;;;;;5000834;28;19922;-81
2023/01/08 03:13:18;;;;;;;;;;;;;;;;;;5004634;28;19941;-83
2023/01/08 03:16:04;;;;;;;;;;;;;;;;;;4994008;28;19917;-81
2023/01/08 03:18:51;;;;;;;;;;;;;;;;;;5007774;28;19909;-81
2023/01/08 03:21:37;;;;;;;;;;;;;;;;;;5007294;28;19937;-81
2023/01/08 03:24:24;;;;;;;;;;;;;;;;;;5006347;28;19913;-82
2023/01/08 03:27:10;;;;;;;;;;;;;;;;;;5004359;28;19917;-80
2023/01/08 03:29:57;;;;;;;;;;;;;;;;;;5005315;28;19921;-81
2023/01/08 03:32:43;;;;;;;;;;;;;;;;;;5003700;28;19917;-80
2023/01/08 03:35:30;;;;;;;;;;;;;;;;;;5004391;28;19918;-80
2023/01/08 03:38:16;;;;;;;;;;;;;;;;;;5003451;28;19909;-79
2023/01/08 03:41:03;;;;;;;;;;;;;;;;;;5008382;28;20273;-79
2023/01/08 03:43:49;;;;;;;;;;;;;;;;;;5012150;28;19913;-80
2023/01/08 03:46:36;;;;;;;;;;;;;;;;;;5005305;28;20030;-80
2023/01/08 03:49:22;;;;;;;;;;;;;;;;;;5002528;28;19924;-79
2023/01/08 03:52:08;;;;;;;;;;;;;;;;;;5006439;28;19925;-81
2023/01/08 03:54:55;;;;;;;;;;;;;;;;;;5012039;28;19917;-80
2023/01/08 03:57:41;;;;;;;;;;;;;;;;;;5005766;28;19910;-79
2023/01/08 04:00:28;;;;;;;;;;;;;;;;;;4993471;28;19924;-78
2023/01/08 04:03:14;;;;;;;;;;;;;;;;;;5008058;28;20424;-79
2023/01/08 04:06:01;;;;;;;;;;;;;;;;;;5003341;28;19939;-79
2023/01/08 04:08:47;;;;;;;;;;;;;;;;;;5004170;28;19925;-78
2023/01/08 04:11:34;;;;;;;;;;;;;;;;;;5003964;28;19913;-80
2023/01/08 04:14:20;;;;;;;;;;;;;;;;;;5001361;28;19925;-79
2023/01/08 04:17:07;;;;;;;;;;;;;;;;;;5004276;28;19933;-77
2023/01/08 04:19:53;;;;;;;;;;;;;;;;;;5006315;28;19959;-79
2023/01/08 04:22:40;;;;;;;;;;;;;;;;;;5001280;28;19922;-79
2023/01/08 04:25:26;;;;;;;;;;;;;;;;;;5006098;28;19913;-78
2023/01/08 04:28:13;;;;;;;;;;;;;;;;;;5003490;28;19921;-78
2023/01/08 04:30:59;;;;;;;;;;;;;;;;;;5003226;28;19913;-79
2023/01/08 04:33:46;;;;;;;;;;;;;;;;;;5003561;28;19917;-79
2023/01/08 04:36:32;;;;;;;;;;;;;;;;;;5006673;28;19910;-78
2023/01/08 04:39:19;;;;;;;;;;;;;;;;;;4999942;28;19914;-78
2023/01/08 04:42:05;;;;;;;;;;;;;;;;;;5009412;28;19911;-79
2023/01/08 04:44:51;;;;;;;;;;;;;;;;;;4999164;28;20712;-80
2023/01/08 04:47:38;;;;;;;;;;;;;;;;;;5004623;28;19929;-80
2023/01/08 04:50:24;;;;;;;;;;;;;;;;;;5002588;28;19936;-80
2023/01/08 04:53:11;;;;;;;;;;;;;;;;;;4995819;28;20391;-80
2023/01/08 04:55:57;;;;;;;;;;;;;;;;;;4990078;28;19924;-81
2023/01/08 04:58:44;;;;;;;;;;;;;;;;;;5001736;28;19913;-81
2023/01/08 05:01:30;;;;;;;;;;;;;;;;;;5002279;28;20286;-80
2023/01/08 05:04:17;;;;;;;;;;;;;;;;;;4997053;28;19917;-80
2023/01/08 05:07:03;;;;;;;;;;;;;;;;;;5006880;28;19928;-80
2023/01/08 05:09:50;;;;;;;;;;;;;;;;;;5000031;28;19914;-80
2023/01/08 05:12:36;;;;;;;;;;;;;;;;;;4997141;28;19914;-81
2023/01/08 05:15:23;;;;;;;;;;;;;;;;;;5004067;28;20365;-79
2023/01/08 05:18:09;;;;;;;;;;;;;;;;;;5005083;28;19968;-80
2023/01/08 05:20:56;;;;;;;;;;;;;;;;;;5009324;28;19920;-81
2023/01/08 05:23:42;;;;;;;;;;;;;;;;;;5002069;28;19922;-80
2023/01/08 05:26:29;;;;;;;;;;;;;;;;;;5002817;28;19948;-80
2023/01/08 05:29:15;;;;;;;;;;;;;;;;;;5000786;28;19917;-79
2023/01/08 05:32:02;;;;;;;;;;;;;;;;;;5006906;28;20313;-80
2023/01/08 05:34:49;;;;;;;;;;;;;;;;;;4998181;28;19921;-79
2023/01/08 05:37:35;;;;;;;;;;;;;;;;;;5011723;28;19909;-81
2023/01/08 05:40:22;;;;;;;;;;;;;;;;;;5033918;28;19919;-80
2023/01/08 05:43:08;;;;;;;;;;;;;;;;;;5029641;28;19909;-80
2023/01/08 05:45:55;;;;;;;;;;;;;;;;;;5016553;28;19910;-80
2023/01/08 05:48:41;;;;;;;;;;;;;;;;;;5011538;28;19917;-80
2023/01/08 05:51:28;;;;;;;;;;;;;;;;;;5025168;28;19924;-81
2023/01/08 05:54:14;;;;;;;;;;;;;;;;;;5012207;28;20304;-81
2023/01/08 05:57:01;;;;;;;;;;;;;;;;;;5006626;28;19917;-80
2023/01/08 05:59:47;;;;;;;;;;;;;;;;;;4999418;28;19917;-80
2023/01/08 06:02:34;;;;;;;;;;;;;;;;;;5004465;28;19920;-80
2023/01/08 06:05:20;;;;;;;;;;;;;;;;;;5001722;28;19913;-77
2023/01/08 06:08:07;;;;;;;;;;;;;;;;;;5001175;28;19928;-80
2023/01/08 06:10:53;;;;;;;;;;;;;;;;;;5012839;28;20443;-79
2023/01/08 06:13:40;;;;;;;;;;;;;;;;;;5003917;28;19917;-77
2023/01/08 06:16:26;;;;;;;;;;;;;;;;;;4995647;28;19913;-78
2023/01/08 06:19:13;;;;;;;;;;;;;;;;;;5003262;28;19918;-77
2023/01/08 06:21:59;;;;;;;;;;;;;;;;;;5000998;28;20385;-77
2023/01/08 06:24:46;;;;;;;;;;;;;;;;;;5006676;28;19917;-79
2023/01/08 06:27:32;;;;;;;;;;;;;;;;;;5007584;28;19922;-77
2023/01/08 06:30:19;;;;;;;;;;;;;;;;;;5001878;28;19940;-78
2023/01/08 06:33:05;;;;;;;;;;;;;;;;;;5000110;28;19913;-77
2023/01/08 06:35:51;;;;;;;;;;;;;;;;;;5001417;28;19914;-78
2023/01/08 06:38:38;;;;;;;;;;;;;;;;;;4990460;28;19920;-78
2023/01/08 06:41:24;;;;;;;;;;;;;;;;;;4998393;28;19994;-78
2023/01/08 06:44:12;;;;;;;;;;;;;;;;;;5012199;28;19917;-78
2023/01/08 06:46:58;;;;;;;;;;;;;;;;;;5007019;28;19920;-78
2023/01/08 06:49:45;;;;;;;;;;;;;;;;;;4999027;28;19922;-81
2023/01/08 06:52:31;;;;;;;;;;;;;;;;;;5004206;28;19928;-78
2023/01/08 06:55:18;;;;;;;;;;;;;;;;;;5002877;28;19924;-77
2023/01/08 06:58:04;;;;;;;;;;;;;;;;;;5006127;28;19913;-81
2023/01/08 07:00:50;;;;;;;;;;;;;;;;;;5003063;28;19909;-78
2023/01/08 07:03:37;;;;;;;;;;;;;;;;;;5006346;28;19917;-79
2023/01/08 07:06:24;;;;;;;;;;;;;;;;;;4990137;28;20270;-79
2023/01/08 07:09:10;;;;;;;;;;;;;;;;;;5000508;28;20431;-78
2023/01/08 07:11:56;;;;;;;;;;;;;;;;;;4998787;28;19920;-78
2023/01/08 07:14:43;;;;;;;;;;;;;;;;;;5002493;28;19917;-78
2023/01/08 07:17:29;;;;;;;;;;;;;;;;;;4999408;28;19921;-78
2023/01/08 07:20:16;;;;;;;;;;;;;;;;;;5002844;28;19925;-78
2023/01/08 07:23:02;;;;;;;;;;;;;;;;;;5004030;28;20396;-78
2023/01/08 07:25:49;;;;;;;;;;;;;;;;;;4996703;28;19918;-79
2023/01/08 07:28:35;;;;;;;;;;;;;;;;;;5008403;28;19928;-79
2023/01/08 07:31:22;;;;;;;;;;;;;;;;;;4998571;28;20292;-78
2023/01/08 07:34:08;;;;;;;;;;;;;;;;;;5001934;28;20380;-78
2023/01/08 07:36:55;;;;;;;;;;;;;;;;;;4985427;28;19918;-79
2023/01/08 07:39:41;;;;;;;;;;;;;;;;;;4998147;28;19936;-79
2023/01/08 07:42:28;;;;;;;;;;;;;;;;;;4998586;28;20644;-78
2023/01/08 07:45:14;;;;;;;;;;;;;;;;;;5002415;28;19917;-78
2023/01/08 07:48:01;;;;;;;;;;;;;;;;;;5012309;28;20423;-79
2023/01/08 07:50:47;;;;;;;;;;;;;;;;;;5005061;28;19922;-78
2023/01/08 07:53:34;;;;;;;;;;;;;;;;;;5005091;28;19925;-78
2023/01/08 07:56:20;;;;;;;;;;;;;;;;;;5000331;28;19920;-78
2023/01/08 07:59:07;;;;;;;;;;;;;;;;;;5006569;28;19928;-78
2023/01/08 08:01:53;;;;;;;;;;;;;;;;;;5005607;28;20298;-78
2023/01/08 08:04:40;;;;;;;;;;;;;;;;;;5001981;28;19917;-78
2023/01/08 08:07:26;;;;;;;;;;;;;;;;;;5004068;28;19922;-78
2023/01/08 08:10:13;;;;;;;;;;;;;;;;;;5008101;28;19921;-81
2023/01/08 08:12:59;;;;;;;;;;;;;;;;;;4999407;28;19925;-78
2023/01/08 08:15:46;;;;;;;;;;;;;;;;;;5002816;28;20300;-78
2023/01/08 08:18:32;;;;;;;;;;;;;;;;;;5007133;28;19921;-77
2023/01/08 08:21:19;;;;;;;;;;;;;;;;;;5005237;28;19920;-79
2023/01/08 08:24:05;;;;;;;;;;;;;;;;;;5009779;28;20483;-80
2023/01/08 08:26:53;;;;;;;;;;;;;;;;;;5003017;28;19924;-78
2023/01/08 08:29:39;;;;;;;;;;;;;;;;;;5002796;28;19951;-81
2023/01/08 08:32:26;;;;;;;;;;;;;;;;;;5004737;28;19932;-78
2023/01/08 08:35:12;;;;;;;;;;;;;;;;;;5003216;28;19917;-80
2023/01/08 08:37:59;;;;;;;;;;;;;;;;;;5004969;28;19936;-78
2023/01/08 08:40:45;;;;;;;;;;;;;;;;;;5004204;28;19909;-81
2023/01/08 08:43:32;;;;;;;;;;;;;;;;;;5000799;28;19921;-80
2023/01/08 08:46:18;;;;;;;;;;;;;;;;;;5004063;28;20401;-80
2023/01/08 08:49:05;;;;;;;;;;;;;;;;;;5010571;28;19921;-80
2023/01/08 08:51:52;;;;;;;;;;;;;;;;;;5019089;28;19930;-80
2023/01/08 08:54:40;;;;;;;;;;;;;;;;;;5033911;28;19908;-78
2023/01/08 08:57:26;;;;;;;;;;;;;;;;;;5026509;28;19922;-79
2023/01/08 09:00:13;;;;;;;;;;;;;;;;;;5007741;28;19916;-79
2023/01/08 09:02:59;;;;;;;;;;;;;;;;;;4999318;28;19940;-78
2023/01/08 09:05:46;;;;;;;;;;;;;;;;;;5003891;28;19922;-81
2023/01/08 09:08:32;;;;;;;;;;;;;;;;;;5003568;28;19933;-79
2023/01/08 09:11:19;;;;;;;;;;;;;;;;;;5000391;28;19924;-81
2023/01/08 09:14:05;;;;;;;;;;;;;;;;;;5004321;28;19918;-79
2023/01/08 09:16:52;;;;;;;;;;;;;;;;;;5001743;28;19993;-82
2023/01/08 09:19:38;;;;;;;;;;;;;;;;;;5003372;28;19910;-82
2023/01/08 09:22:25;;;;;;;;;;;;;;;;;;5002533;28;19921;-84
2023/01/08 09:25:11;;;;;;;;;;;;;;;;;;5002012;28;20298;-83
2023/01/08 09:27:58;;;;;;;;;;;;;;;;;;5010058;28;19926;-83
2023/01/08 09:30:44;;;;;;;;;;;;;;;;;;5005279;28;19924;-82
2023/01/08 09:33:31;;;;;;;;;;;;;;;;;;4994921;28;19921;-82
2023/01/08 09:36:17;;;;;;;;;;;;;;;;;;5000903;28;19972;-84
2023/01/08 09:39:04;;;;;;;;;;;;;;;;;;5004126;28;20468;-83
2023/01/08 09:41:50;;;;;;;;;;;;;;;;;;5000497;28;19921;-83
2023/01/08 09:44:37;;;;;;;;;;;;;;;;;;4999697;28;19917;-83
2023/01/08 09:47:23;;;;;;;;;;;;;;;;;;5000621;28;19956;-83
2023/01/08 09:50:10;;;;;;;;;;;;;;;;;;5007837;28;19940;-82
2023/01/08 09:52:56;;;;;;;;;;;;;;;;;;5006357;28;19932;-82
2023/01/08 09:55:43;;;;;;;;;;;;;;;;;;5006346;28;20301;-83
2023/01/08 09:58:29;;;;;;;;;;;;;;;;;;5006701;28;20381;-83
2023/01/08 10:01:16;;;;;;;;;;;;;;;;;;5001973;28;20696;-83
2023/01/08 10:04:02;;;;;;;;;;;;;;;;;;5004976;28;19921;-79
2023/01/08 10:06:49;;;;;;;;;;;;;;;;;;5000219;28;19917;-78
2023/01/08 10:09:36;;;;;;;;;;;;;;;;;;4995521;28;19925;-82
2023/01/08 10:12:22;;;;;;;;;;;;;;;;;;5000675;28;19917;-81
2023/01/08 10:15:09;;;;;;;;;;;;;;;;;;5000118;28;20226;-82
2023/01/08 10:17:55;;;;;;;;;;;;;;;;;;5003425;28;20064;-83
2023/01/08 10:20:41;;;;;;;;;;;;;;;;;;5004922;28;19913;-84
2023/01/08 10:23:28;;;;;;;;;;;;;;;;;;5004344;28;19921;-82
2023/01/08 10:26:14;;;;;;;;;;;;;;;;;;5002362;28;19917;-82
2023/01/08 10:29:01;;;;;;;;;;;;;;;;;;5000400;28;19944;-79
2023/01/08 10:31:47;;;;;;;;;;;;;;;;;;5002667;28;19937;-80
2023/01/08 10:34:34;;;;;;;;;;;;;;;;;;5001738;28;19925;-81
2023/01/08 10:37:20;;;;;;;;;;;;;;;;;;5003031;28;20364;-82
2023/01/08 10:40:07;;;;;;;;;;;;;;;;;;4999422;28;19920;-83
2023/01/08 10:42:54;;;;;;;;;;;;;;;;;;4999370;28;19922;-79
2023/01/08 10:45:40;;;;;;;;;;;;;;;;;;5000853;28;19940;-82
2023/01/08 10:48:27;;;;;;;;;;;;;;;;;;4995874;28;19925;-83
2023/01/08 10:51:14;;;;;;;;;;;;;;;;;;5007792;28;20671;-86
2023/01/08 10:54:00;;;;;;;;;;;;;;;;;;4994130;28;20395;-79
2023/01/08 10:56:47;;;;;;;;;;;;;;;;;;5001764;28;19917;-79
2023/01/08 10:59:36;;;;;;;;;;;;;;;;;;5000391;28;21341;-79
2023/01/08 11:02:22;;;;;;;;;;;;;;;;;;5002673;28;19920;-79
2023/01/08 11:05:10;;;;;;;;;;;;;;;;;;5010321;28;19920;-80
2023/01/08 11:07:56;;;;;;;;;;;;;;;;;;5012168;28;20400;-80
2023/01/08 11:10:43;;;;;;;;;;;;;;;;;;4997652;28;19917;-78
2023/01/08 11:13:29;;;;;;;;;;;;;;;;;;5001276;28;20448;-79
2023/01/08 11:16:16;;;;;;;;;;;;;;;;;;4992196;28;19923;-78
2023/01/08 11:19:02;;;;;;;;;;;;;;;;;;5003205;28;20542;-78
2023/01/08 11:21:49;;;;;;;;;;;;;;;;;;5005839;28;20673;-79
2023/01/08 11:24:35;;;;;;;;;;;;;;;;;;5005119;28;19940;-81
2023/01/08 11:27:22;;;;;;;;;;;;;;;;;;5001189;28;19939;-81
2023/01/08 11:30:08;;;;;;;;;;;;;;;;;;5007744;28;19921;-80
2023/01/08 11:32:54;;;;;;;;;;;;;;;;;;5009965;28;19913;-81
2023/01/08 11:35:41;;;;;;;;;;;;;;;;;;5006905;28;19925;-82
2023/01/08 11:38:27;;;;;;;;;;;;;;;;;;5002844;28;19924;-82
2023/01/08 11:41:14;;;;;;;;;;;;;;;;;;5004115;28;19917;-81
2023/01/08 11:44:00;;;;;;;;;;;;;;;;;;5003667;28;19925;-81
2023/01/08 11:46:47;;;;;;;;;;;;;;;;;;5004981;28;20560;-81
2023/01/08 11:49:33;;;;;;;;;;;;;;;;;;5002954;28;19932;-81
2023/01/08 11:52:20;;;;;;;;;;;;;;;;;;5000809;28;19955;-80
2023/01/08 11:55:06;;;;;;;;;;;;;;;;;;4999990;28;19924;-80
2023/01/08 11:57:53;;;;;;;;;;;;;;;;;;5003423;28;19917;-79
2023/01/08 12:00:39;;;;;;;;;;;;;;;;;;5013157;28;19952;-79
2023/01/08 12:03:26;;;;;;;;;;;;;;;;;;5029586;28;19916;-80
2023/01/08 12:06:12;;;;;;;;;;;;;;;;;;5030281;28;20046;-80
2023/01/08 12:08:59;;;;;;;;;;;;;;;;;;5021632;28;19924;-79
2023/01/08 12:11:45;;;;;;;;;;;;;;;;;;5015545;28;19917;-79
2023/01/08 12:14:32;;;;;;;;;;;;;;;;;;5008488;28;20384;-80
2023/01/08 12:17:18;;;;;;;;;;;;;;;;;;5009825;28;19916;-79
2023/01/08 12:20:05;;;;;;;;;;;;;;;;;;5013688;28;20469;-78
2023/01/08 12:22:51;;;;;;;;;;;;;;;;;;5004746;28;19929;-79
2023/01/08 12:25:38;;;;;;;;;;;;;;;;;;5010068;28;20224;-79
2023/01/08 12:28:24;;;;;;;;;;;;;;;;;;5008416;28;20996;-81
2023/01/08 12:31:10;;;;;;;;;;;;;;;;;;5003733;28;19939;-81
2023/01/08 12:33:57;;;;;;;;;;;;;;;;;;5015082;28;19936;-78
2023/01/08 12:36:43;;;;;;;;;;;;;;;;;;5007784;28;19916;-80
2023/01/08 12:39:30;;;;;;;;;;;;;;;;;;5011941;28;19920;-79
2023/01/08 12:42:16;;;;;;;;;;;;;;;;;;5003262;28;19924;-79
2023/01/08 12:45:03;;;;;;;;;;;;;;;;;;5002871;28;19948;-79
2023/01/08 12:47:49;;;;;;;;;;;;;;;;;;5008180;28;19932;-78
2023/01/08 12:50:36;;;;;;;;;;;;;;;;;;5005575;28;19924;-77
2023/01/08 12:53:22;;;;;;;;;;;;;;;;;;5003001;28;19975;-78
2023/01/08 12:56:09;;;;;;;;;;;;;;;;;;5005503;28;20235;-79
2023/01/08 12:58:55;;;;;;;;;;;;;;;;;;5009459;28;19917;-79
2023/01/08 13:01:42;;;;;;;;;;;;;;;;;;5005798;28;19975;-79
2023/01/08 13:04:28;;;;;;;;;;;;;;;;;;5003039;28;19913;-78
2023/01/08 13:07:15;;;;;;;;;;;;;;;;;;5011308;28;19913;-79
2023/01/08 13:10:01;;;;;;;;;;;;;;;;;;4989836;28;19931;-79
2023/01/08 13:12:48;;;;;;;;;;;;;;;;;;5009560;28;20285;-80
2023/01/08 13:15:34;;;;;;;;;;;;;;;;;;5006863;28;19917;-77
2023/01/08 13:18:21;;;;;;;;;;;;;;;;;;5000612;28;19918;-76
2023/01/08 13:21:07;;;;;;;;;;;;;;;;;;4997382;28;19917;-76
2023/01/08 13:23:54;;;;;;;;;;;;;;;;;;4986093;28;20300;-76
2023/01/08 13:26:40;;;;;;;;;;;;;;;;;;4988833;28;19913;-75
2023/01/08 13:29:27;;;;;;;;;;;;;;;;;;4999336;28;19955;-75
2023/01/08 13:32:13;;;;;;;;;;;;;;;;;;5002495;28;19918;-78
2023/01/08 13:35:00;;;;;;;;;;;;;;;;;;5001150;28;20487;-78
2023/01/08 13:37:46;;;;;;;;;;;;;;;;;;5005919;28;19920;-77
2023/01/08 13:40:32;;;;;;;;;;;;;;;;;;5004237;28;19948;-76
2023/01/08 13:43:19;;;;;;;;;;;;;;;;;;5010847;28;19919;-76
2023/01/08 13:46:06;;;;;;;;;;;;;;;;;;5004673;28;20592;-75
2023/01/08 13:48:52;;;;;;;;;;;;;;;;;;4988772;28;20256;-76
2023/01/08 13:51:40;;;;;;;;;;;;;;;;;;5003914;28;19925;-76
2023/01/08 13:54:26;;;;;;;;;;;;;;;;;;5001737;28;19917;-76
2023/01/08 13:57:13;;;;;;;;;;;;;;;;;;5013896;28;19917;-76
2023/01/08 13:59:59;;;;;;;;;;;;;;;;;;5003288;28;19924;-77
2023/01/08 14:02:49;;;;;;;;;;;;;;;;;;5007209;28;19918;-75
2023/01/08 14:05:35;;;;;;;;;;;;;;;;;;5000263;28;19913;-76
2023/01/08 14:08:22;;;;;;;;;;;;;;;;;;5001974;28;19932;-77
2023/01/08 14:11:08;;;;;;;;;;;;;;;;;;5000738;28;19917;-76
2023/01/08 14:13:55;;;;;;;;;;;;;;;;;;5006520;28;19913;-76
2023/01/08 14:16:41;;;;;;;;;;;;;;;;;;5001549;28;20385;-77
2023/01/08 14:19:28;;;;;;;;;;;;;;;;;;5002065;28;19913;-77
2023/01/08 14:22:14;;;;;;;;;;;;;;;;;;5003939;28;19935;-76
2023/01/08 14:25:01;;;;;;;;;;;;;;;;;;4986356;28;19910;-77
2023/01/08 14:27:47;;;;;;;;;;;;;;;;;;5006656;28;19918;-78
2023/01/08 14:30:35;;;;;;;;;;;;;;;;;;4997829;28;20024;-77
2023/01/08 14:33:21;;;;;;;;;;;;;;;;;;5003440;28;19922;-77
2023/01/08 14:36:07;;;;;;;;;;;;;;;;;;5001621;28;20380;-77
2023/01/08 14:38:54;;;;;;;;;;;;;;;;;;5001225;28;19917;-77
2023/01/08 14:44:47;;;;;;;;;;;;;;;;;;4997746;28;19920;-76
2023/01/08 14:47:34;;;;;;;;;;;;;;;;;;5001139;28;20407;-76
2023/01/08 14:50:20;;;;;;;;;;;;;;;;;;5005638;28;19914;-76
2023/01/08 14:53:07;;;;;;;;;;;;;;;;;;5001335;28;19976;-76
2023/01/08 14:55:53;;;;;;;;;;;;;;;;;;4994345;28;19921;-77
2023/01/08 14:58:40;;;;;;;;;;;;;;;;;;5010399;28;20352;-76
2023/01/08 15:01:26;;;;;;;;;;;;;;;;;;5010590;28;19920;-76
2023/01/08 15:04:13;;;;;;;;;;;;;;;;;;5007555;28;19913;-77
2023/01/08 15:06:59;;;;;;;;;;;;;;;;;;4997683;28;19944;-76
2023/01/08 15:09:46;;;;;;;;;;;;;;;;;;5004664;28;19921;-76
2023/01/08 15:12:32;;;;;;;;;;;;;;;;;;5009781;28;19918;-75
2023/01/08 15:15:19;;;;;;;;;;;;;;;;;;5006196;28;20304;-75
2023/01/08 15:18:06;;;;;;;;;;;;;;;;;;5005688;28;19913;-77
2023/01/08 15:20:53;;;;;;;;;;;;;;;;;;5010124;28;19918;-77
2023/01/08 15:23:39;;;;;;;;;;;;;;;;;;5008811;28;19917;-77
2023/01/08 15:26:26;;;;;;;;;;;;;;;;;;5014189;28;19914;-78
2023/01/08 15:29:12;;;;;;;;;;;;;;;;;;5000712;28;20656;-77
2023/01/08 15:31:59;;;;;;;;;;;;;;;;;;5018022;28;19956;-78
2023/01/08 15:34:45;;;;;;;;;;;;;;;;;;5011239;28;19914;-75
2023/01/08 15:37:32;;;;;;;;;;;;;;;;;;5016140;28;19921;-76
2023/01/08 15:40:18;;;;;;;;;;;;;;;;;;5011784;28;19918;-76
2023/01/08 15:43:10;;;;;;;;;;;;;;;;;;5008012;28;19943;-77
2023/01/08 15:45:57;;;;;;;;;;;;;;;;;;5006696;28;19913;-77
2023/01/08 15:48:43;;;;;;;;;;;;;;;;;;5010207;28;20369;-76
2023/01/08 15:51:30;;;;;;;;;;;;;;;;;;5011997;28;19921;-76
2023/01/08 15:54:16;;;;;;;;;;;;;;;;;;5015916;28;19909;-77
2023/01/08 15:57:03;;;;;;;;;;;;;;;;;;5013543;28;19921;-76
2023/01/08 15:59:50;;;;;;;;;;;;;;;;;;5010635;28;19960;-76
2023/01/08 16:02:36;;;;;;;;;;;;;;;;;;5019533;28;19944;-77
2023/01/08 16:05:23;;;;;;;;;;;;;;;;;;5015619;28;19918;-76
2023/01/08 16:08:09;;;;;;;;;;;;;;;;;;5020322;28;20395;-81
2023/01/08 16:10:56;;;;;;;;;;;;;;;;;;5015112;28;19925;-75
2023/01/08 16:13:42;;;;;;;;;;;;;;;;;;5006154;28;19933;-76
2023/01/08 16:16:29;;;;;;;;;;;;;;;;;;5001000;28;20297;-77
2023/01/08 16:19:15;;;;;;;;;;;;;;;;;;5002512;28;20381;-78
2023/01/08 16:22:03;;;;;;;;;;;;;;;;;;5003542;28;19913;-76
2023/01/08 16:24:49;;;;;;;;;;;;;;;;;;5005423;28;19917;-75
2023/01/08 16:27:37;;;;;;;;;;;;;;;;;;4997016;28;20305;-80
2023/01/08 16:30:23;;;;;;;;;;;;;;;;;;5000969;28;19937;-78
2023/01/08 16:33:10;;;;;;;;;;;;;;;;;;5010307;28;19918;-78
2023/01/08 16:35:56;;;;;;;;;;;;;;;;;;5004143;28;19916;-79
2023/01/08 16:38:43;;;;;;;;;;;;;;;;;;5003773;28;20023;-80
2023/01/08 16:41:29;;;;;;;;;;;;;;;;;;5005897;28;19917;-78
2023/01/08 16:44:16;;;;;;;;;;;;;;;;;;5001010;28;19917;-80
2023/01/08 16:47:02;;;;;;;;;;;;;;;;;;5007591;28;20300;-78
2023/01/08 16:49:49;;;;;;;;;;;;;;;;;;5006746;28;20365;-79
2023/01/08 16:52:36;;;;;;;;;;;;;;;;;;5009924;28;19944;-80
2023/01/08 16:55:22;;;;;;;;;;;;;;;;;;5003541;28;19917;-80
2023/01/08 16:58:09;;;;;;;;;;;;;;;;;;5003577;28;19944;-79
2023/01/08 17:00:55;;;;;;;;;;;;;;;;;;5004171;28;19914;-79
2023/01/08 17:03:42;;;;;;;;;;;;;;;;;;5005478;28;19924;-80
2023/01/08 17:06:28;;;;;;;;;;;;;;;;;;5003604;28;19936;-81
2023/01/08 17:09:15;;;;;;;;;;;;;;;;;;5004157;28;19925;-76
2023/01/08 17:12:01;;;;;;;;;;;;;;;;;;5001749;28;19921;-77
2023/01/08 17:14:48;;;;;;;;;;;;;;;;;;4998744;28;19924;-83
2023/01/08 17:17:35;;;;;;;;;;;;;;;;;;5001435;28;20292;-77
2023/01/08 17:20:21;;;;;;;;;;;;;;;;;;5003222;28;19918;-77
2023/01/08 17:23:08;;;;;;;;;;;;;;;;;;4989172;28;20293;-75
2023/01/08 17:25:54;;;;;;;;;;;;;;;;;;5002168;28;19913;-76
2023/01/08 17:28:41;;;;;;;;;;;;;;;;;;5003040;28;19925;-77
2023/01/08 17:31:27;;;;;;;;;;;;;;;;;;4999937;28;19917;-76
2023/01/08 17:34:14;;;;;;;;;;;;;;;;;;5003858;28;19914;-77
2023/01/08 17:37:00;;;;;;;;;;;;;;;;;;4987526;28;20396;-77
2023/01/08 17:39:47;;;;;;;;;;;;;;;;;;5000381;28;19914;-77
2023/01/08 17:42:33;;;;;;;;;;;;;;;;;;5003326;28;19917;-76
2023/01/08 17:45:19;;;;;;;;;;;;;;;;;;5000575;28;19921;-76
2023/01/08 17:48:06;;;;;;;;;;;;;;;;;;5000627;28;19939;-76
2023/01/08 17:50:54;;;;;;;;;;;;;;;;;;5005636;28;19929;-77
2023/01/08 17:53:40;;;;;;;;;;;;;;;;;;4995822;28;19925;-79
2023/01/08 17:56:27;;;;;;;;;;;;;;;;;;5002408;28;20407;-77
2023/01/08 17:59:13;;;;;;;;;;;;;;;;;;4999644;28;19910;-76
2023/01/08 18:02:00;;;;;;;;;;;;;;;;;;4989218;28;19917;-76
2023/01/08 18:04:47;;;;;;;;;;;;;;;;;;4998027;28;19914;-76
2023/01/08 18:07:34;;;;;;;;;;;;;;;;;;5001312;28;19914;-76
2023/01/08 18:10:20;;;;;;;;;;;;;;;;;;5000389;28;19930;-79
2023/01/08 18:13:07;;;;;;;;;;;;;;;;;;5003334;28;20293;-79
2023/01/08 18:15:53;;;;;;;;;;;;;;;;;;4986716;28;19916;-84
2023/01/08 18:18:40;;;;;;;;;;;;;;;;;;5005710;28;19914;-76
2023/01/08 18:21:26;;;;;;;;;;;;;;;;;;5004357;28;19924;-78
2023/01/08 18:24:12;;;;;;;;;;;;;;;;;;5017498;28;19932;-77
2023/01/08 18:26:59;;;;;;;;;;;;;;;;;;5012142;28;19910;-79
2023/01/08 18:29:46;;;;;;;;;;;;;;;;;;5013693;28;19917;-77
2023/01/08 18:32:32;;;;;;;;;;;;;;;;;;5005409;28;19917;-78
2023/01/08 18:35:19;;;;;;;;;;;;;;;;;;5005204;28;19936;-78
2023/01/08 18:38:07;;;;;;;;;;;;;;;;;;5001111;28;19920;-78
2023/01/08 18:40:55;;;;;;;;;;;;;;;;;;5001112;28;19914;-79
2023/01/08 18:43:41;;;;;;;;;;;;;;;;;;5002205;28;19913;-78
2023/01/08 18:46:27;;;;;;;;;;;;;;;;;;5004282;28;19921;-76
2023/01/08 18:49:14;;;;;;;;;;;;;;;;;;4994193;28;20504;-77
2023/01/08 18:52:00;;;;;;;;;;;;;;;;;;5007468;28;19922;-79
2023/01/08 18:54:47;;;;;;;;;;;;;;;;;;4999670;28;19920;-77
2023/01/08 18:57:40;;;;;;;;;;;;;;;;;;4999338;28;19922;-80
2023/01/08 19:00:26;;;;;;;;;;;;;;;;;;5002086;28;19913;-80
2023/01/08 19:03:13;;;;;;;;;;;;;;;;;;5004365;28;19928;-80